sensor_id;sensor_type;location;lat;lon;timestamp;P1;durP1;ratioP1;P2;durP2;ratioP2
34471;SDS011;20710;49.976;19.836;2023-06-01T00:33:21;18.20;;;10.30;;
34471;SDS011;20710;49.976;19.836;2023-06-01T00:39:43;13.80;;;9.50;;
34471;SDS011;20710;49.976;19.836;2023-06-01T00:53:39;16.10;;;9.00;;
34471;SDS011;20710;49.976;19.836;2023-06-01T00:59:41;17.40;;;9.30;;
34471;SDS011;20710;49.976;19.836;2023-06-01T01:41:29;16.10;;;8.00;;
34471;SDS011;20710;49.976;19.836;2023-06-01T01:55:30;12.40;;;7.70;;
34471;SDS011;20710;49.976;19.836;2023-06-01T02:01:33;16.40;;;9.50;;
34471;SDS011;20710;49.976;19.836;2023-06-01T02:07:36;17.50;;;8.90;;
34471;SDS011;20710;49.976;19.836;2023-06-01T02:13:38;15.50;;;9.70;;
34471;SDS011;20710;49.976;19.836;2023-06-01T02:19:58;16.60;;;9.90;;
34471;SDS011;20710;49.976;19.836;2023-06-01T02:26:01;18.00;;;8.50;;
34471;SDS011;20710;49.976;19.836;2023-06-01T02:32:03;17.40;;;8.70;;
34471;SDS011;20710;49.976;19.836;2023-06-01T02:38:05;14.90;;;7.70;;
34471;SDS011;20710;49.976;19.836;2023-06-01T02:44:08;17.30;;;8.50;;
34471;SDS011;20710;49.976;19.836;2023-06-01T02:50:10;16.90;;;8.60;;
34471;SDS011;20710;49.976;19.836;2023-06-01T02:56:20;16.80;;;8.90;;
34471;SDS011;20710;49.976;19.836;2023-06-01T03:02:44;14.00;;;9.30;;
34471;SDS011;20710;49.976;19.836;2023-06-01T03:09:06;15.90;;;8.40;;
34471;SDS011;20710;49.976;19.836;2023-06-01T03:15:27;18.10;;;9.70;;
34471;SDS011;20710;49.976;19.836;2023-06-01T03:21:30;14.70;;;8.40;;
34471;SDS011;20710;49.976;19.836;2023-06-01T03:27:33;17.90;;;9.40;;
34471;SDS011;20710;49.976;19.836;2023-06-01T03:33:35;16.50;;;9.50;;
34471;SDS011;20710;49.976;19.836;2023-06-01T03:39:37;12.50;;;8.40;;
34471;SDS011;20710;49.976;19.836;2023-06-01T03:45:41;16.90;;;9.50;;
34471;SDS011;20710;49.976;19.836;2023-06-01T03:51:43;15.60;;;8.50;;
34471;SDS011;20710;49.976;19.836;2023-06-01T03:57:46;14.90;;;8.40;;
34471;SDS011;20710;49.976;19.836;2023-06-01T04:03:56;11.70;;;7.40;;
34471;SDS011;20710;49.976;19.836;2023-06-01T04:10:18;14.10;;;7.70;;
34471;SDS011;20710;49.976;19.836;2023-06-01T04:16:20;22.60;;;8.70;;
34471;SDS011;20710;49.976;19.836;2023-06-01T04:22:22;16.80;;;10.40;;
34471;SDS011;20710;49.976;19.836;2023-06-01T04:28:24;16.80;;;10.30;;
34471;SDS011;20710;49.976;19.836;2023-06-01T04:34:27;17.30;;;9.30;;
34471;SDS011;20710;49.976;19.836;2023-06-01T04:40:33;16.30;;;8.70;;
34471;SDS011;20710;49.976;19.836;2023-06-01T04:46:35;15.90;;;9.00;;
34471;SDS011;20710;49.976;19.836;2023-06-01T04:52:57;14.40;;;8.70;;
34471;SDS011;20710;49.976;19.836;2023-06-01T04:58:59;13.20;;;8.00;;
34471;SDS011;20710;49.976;19.836;2023-06-01T05:05:23;11.90;;;6.70;;
34471;SDS011;20710;49.976;19.836;2023-06-01T05:11:31;13.40;;;6.70;;
34471;SDS011;20710;49.976;19.836;2023-06-01T05:17:34;13.30;;;7.10;;
34471;SDS011;20710;49.976;19.836;2023-06-01T05:23:54;25.00;;;10.50;;
34471;SDS011;20710;49.976;19.836;2023-06-01T05:29:56;21.70;;;11.00;;
34471;SDS011;20710;49.976;19.836;2023-06-01T05:35:59;20.50;;;9.90;;
34471;SDS011;20710;49.976;19.836;2023-06-01T05:42:03;15.30;;;7.60;;
34471;SDS011;20710;49.976;19.836;2023-06-01T05:48:10;10.40;;;6.00;;
34471;SDS011;20710;49.976;19.836;2023-06-01T05:54:31;9.20;;;5.50;;
34471;SDS011;20710;49.976;19.836;2023-06-01T06:00:33;16.80;;;6.70;;
34471;SDS011;20710;49.976;19.836;2023-06-01T06:06:38;14.30;;;6.70;;
34471;SDS011;20710;49.976;19.836;2023-06-01T06:12:41;11.20;;;7.10;;
34471;SDS011;20710;49.976;19.836;2023-06-01T06:18:42;24.00;;;8.10;;
34471;SDS011;20710;49.976;19.836;2023-06-01T06:24:44;22.30;;;9.10;;
34471;SDS011;20710;49.976;19.836;2023-06-01T06:30:47;21.10;;;9.80;;
34471;SDS011;20710;49.976;19.836;2023-06-01T06:36:49;16.40;;;7.00;;
34471;SDS011;20710;49.976;19.836;2023-06-01T06:42:51;14.30;;;7.30;;
34471;SDS011;20710;49.976;19.836;2023-06-01T06:48:53;16.50;;;6.00;;
34471;SDS011;20710;49.976;19.836;2023-06-01T06:54:56;10.90;;;4.60;;
34471;SDS011;20710;49.976;19.836;2023-06-01T07:00:58;8.40;;;3.90;;
34471;SDS011;20710;49.976;19.836;2023-06-01T07:07:06;7.00;;;4.00;;
34471;SDS011;20710;49.976;19.836;2023-06-01T07:13:07;10.20;;;4.60;;
34471;SDS011;20710;49.976;19.836;2023-06-01T07:19:09;7.60;;;4.10;;
34471;SDS011;20710;49.976;19.836;2023-06-01T07:25:11;8.40;;;3.70;;
34471;SDS011;20710;49.976;19.836;2023-06-01T07:31:14;7.00;;;3.70;;
34471;SDS011;20710;49.976;19.836;2023-06-01T07:37:37;10.20;;;4.30;;
34471;SDS011;20710;49.976;19.836;2023-06-01T07:44:19;11.10;;;3.60;;
34471;SDS011;20710;49.976;19.836;2023-06-01T07:50:21;8.70;;;3.80;;
34471;SDS011;20710;49.976;19.836;2023-06-01T07:56:29;12.10;;;4.80;;
34471;SDS011;20710;49.976;19.836;2023-06-01T08:02:31;5.40;;;3.30;;
34471;SDS011;20710;49.976;19.836;2023-06-01T08:08:33;6.90;;;3.50;;
34471;SDS011;20710;49.976;19.836;2023-06-01T08:14:35;7.50;;;3.40;;
34471;SDS011;20710;49.976;19.836;2023-06-01T08:20:37;9.80;;;3.40;;
34471;SDS011;20710;49.976;19.836;2023-06-01T08:26:40;7.00;;;3.00;;
34471;SDS011;20710;49.976;19.836;2023-06-01T08:32:42;5.60;;;2.60;;
34471;SDS011;20710;49.976;19.836;2023-06-01T08:45:26;5.10;;;2.80;;
34471;SDS011;20710;49.976;19.836;2023-06-01T08:51:31;5.90;;;1.90;;
34471;SDS011;20710;49.976;19.836;2023-06-01T08:57:40;3.30;;;1.90;;
34471;SDS011;20710;49.976;19.836;2023-06-01T09:03:45;5.90;;;2.20;;
34471;SDS011;20710;49.976;19.836;2023-06-01T09:09:47;5.70;;;2.60;;
34471;SDS011;20710;49.976;19.836;2023-06-01T09:16:11;5.20;;;2.20;;
34471;SDS011;20710;49.976;19.836;2023-06-01T09:22:37;3.70;;;1.90;;
34471;SDS011;20710;49.976;19.836;2023-06-01T09:28:58;5.50;;;1.90;;
34471;SDS011;20710;49.976;19.836;2023-06-01T09:35:01;3.50;;;1.40;;
34471;SDS011;20710;49.976;19.836;2023-06-01T09:41:03;3.60;;;1.80;;
34471;SDS011;20710;49.976;19.836;2023-06-01T09:47:08;4.50;;;2.00;;
34471;SDS011;20710;49.976;19.836;2023-06-01T09:53:14;5.80;;;1.80;;
34471;SDS011;20710;49.976;19.836;2023-06-01T09:59:24;4.00;;;1.70;;
34471;SDS011;20710;49.976;19.836;2023-06-01T10:05:27;4.20;;;2.20;;
34471;SDS011;20710;49.976;19.836;2023-06-01T10:11:51;5.50;;;1.90;;
34471;SDS011;20710;49.976;19.836;2023-06-01T10:18:20;4.40;;;1.80;;
34471;SDS011;20710;49.976;19.836;2023-06-01T10:25:29;2.90;;;2.00;;
34471;SDS011;20710;49.976;19.836;2023-06-01T10:31:35;7.20;;;2.00;;
34471;SDS011;20710;49.976;19.836;2023-06-01T10:37:37;4.60;;;2.10;;
34471;SDS011;20710;49.976;19.836;2023-06-01T10:43:39;4.40;;;2.00;;
34471;SDS011;20710;49.976;19.836;2023-06-01T10:56:23;5.10;;;2.00;;
34471;SDS011;20710;49.976;19.836;2023-06-01T11:08:50;5.60;;;2.40;;
34471;SDS011;20710;49.976;19.836;2023-06-01T11:15:09;3.40;;;2.10;;
34471;SDS011;20710;49.976;19.836;2023-06-01T11:27:20;5.60;;;1.70;;
34471;SDS011;20710;49.976;19.836;2023-06-01T11:33:22;4.70;;;1.70;;
34471;SDS011;20710;49.976;19.836;2023-06-01T11:39:37;7.20;;;2.30;;
34471;SDS011;20710;49.976;19.836;2023-06-01T11:45:39;8.10;;;2.50;;
34471;SDS011;20710;49.976;19.836;2023-06-01T11:51:41;6.40;;;2.30;;
34471;SDS011;20710;49.976;19.836;2023-06-01T11:57:46;6.60;;;2.20;;
34471;SDS011;20710;49.976;19.836;2023-06-01T12:03:55;3.30;;;2.00;;
34471;SDS011;20710;49.976;19.836;2023-06-01T12:09:58;4.80;;;1.90;;
34471;SDS011;20710;49.976;19.836;2023-06-01T12:16:03;3.20;;;1.80;;
34471;SDS011;20710;49.976;19.836;2023-06-01T12:22:05;5.20;;;1.60;;
34471;SDS011;20710;49.976;19.836;2023-06-01T12:28:10;4.40;;;1.50;;
34471;SDS011;20710;49.976;19.836;2023-06-01T12:34:39;3.40;;;1.80;;
34471;SDS011;20710;49.976;19.836;2023-06-01T12:40:47;2.30;;;1.30;;
34471;SDS011;20710;49.976;19.836;2023-06-01T12:47:17;3.90;;;1.90;;
34471;SDS011;20710;49.976;19.836;2023-06-01T12:53:19;3.10;;;1.60;;
34471;SDS011;20710;49.976;19.836;2023-06-01T12:59:48;2.10;;;1.60;;
34471;SDS011;20710;49.976;19.836;2023-06-01T13:06:27;4.50;;;1.60;;
34471;SDS011;20710;49.976;19.836;2023-06-01T13:12:50;4.60;;;1.90;;
34471;SDS011;20710;49.976;19.836;2023-06-01T13:18:53;2.60;;;1.40;;
34471;SDS011;20710;49.976;19.836;2023-06-01T13:24:57;5.50;;;1.50;;
34471;SDS011;20710;49.976;19.836;2023-06-01T13:30:59;4.50;;;1.90;;
34471;SDS011;20710;49.976;19.836;2023-06-01T13:37:04;4.50;;;1.70;;
34471;SDS011;20710;49.976;19.836;2023-06-01T13:43:05;3.30;;;1.30;;
34471;SDS011;20710;49.976;19.836;2023-06-01T13:49:07;3.90;;;1.70;;
34471;SDS011;20710;49.976;19.836;2023-06-01T13:55:09;3.20;;;1.80;;
34471;SDS011;20710;49.976;19.836;2023-06-01T14:01:11;4.70;;;2.30;;
34471;SDS011;20710;49.976;19.836;2023-06-01T14:07:13;2.90;;;1.50;;
34471;SDS011;20710;49.976;19.836;2023-06-01T14:13:15;3.30;;;1.60;;
34471;SDS011;20710;49.976;19.836;2023-06-01T14:19:17;7.60;;;1.80;;
34471;SDS011;20710;49.976;19.836;2023-06-01T14:25:19;5.60;;;1.80;;
34471;SDS011;20710;49.976;19.836;2023-06-01T14:31:21;5.50;;;2.00;;
34471;SDS011;20710;49.976;19.836;2023-06-01T14:37:23;6.00;;;1.80;;
34471;SDS011;20710;49.976;19.836;2023-06-01T14:44:05;2.90;;;1.60;;
34471;SDS011;20710;49.976;19.836;2023-06-01T14:50:08;6.90;;;1.80;;
34471;SDS011;20710;49.976;19.836;2023-06-01T14:56:10;7.30;;;2.20;;
34471;SDS011;20710;49.976;19.836;2023-06-01T15:02:12;6.70;;;1.70;;
34471;SDS011;20710;49.976;19.836;2023-06-01T15:08:17;4.30;;;1.60;;
34471;SDS011;20710;49.976;19.836;2023-06-01T15:14:22;7.80;;;2.20;;
34471;SDS011;20710;49.976;19.836;2023-06-01T15:21:59;6.20;;;2.00;;
34471;SDS011;20710;49.976;19.836;2023-06-01T15:28:01;6.90;;;1.80;;
34471;SDS011;20710;49.976;19.836;2023-06-01T15:34:03;8.00;;;2.60;;
34471;SDS011;20710;49.976;19.836;2023-06-01T15:40:46;4.40;;;1.90;;
34471;SDS011;20710;49.976;19.836;2023-06-01T15:46:50;6.30;;;2.10;;
34471;SDS011;20710;49.976;19.836;2023-06-01T15:59:21;4.40;;;1.50;;
34471;SDS011;20710;49.976;19.836;2023-06-01T16:06:24;4.50;;;1.60;;
34471;SDS011;20710;49.976;19.836;2023-06-01T16:12:26;6.30;;;1.50;;
34471;SDS011;20710;49.976;19.836;2023-06-01T16:18:28;2.00;;;1.30;;
34471;SDS011;20710;49.976;19.836;2023-06-01T16:24:31;3.50;;;1.60;;
34471;SDS011;20710;49.976;19.836;2023-06-01T16:30:32;2.70;;;1.50;;
34471;SDS011;20710;49.976;19.836;2023-06-01T16:36:34;11.30;;;2.00;;
34471;SDS011;20710;49.976;19.836;2023-06-01T16:42:38;4.20;;;1.70;;
34471;SDS011;20710;49.976;19.836;2023-06-01T16:48:41;6.20;;;2.30;;
34471;SDS011;20710;49.976;19.836;2023-06-01T16:54:43;8.30;;;2.10;;
34471;SDS011;20710;49.976;19.836;2023-06-01T17:00:45;5.40;;;2.20;;
34471;SDS011;20710;49.976;19.836;2023-06-01T17:06:51;4.30;;;2.30;;
34471;SDS011;20710;49.976;19.836;2023-06-01T17:13:16;4.60;;;1.80;;
34471;SDS011;20710;49.976;19.836;2023-06-01T17:19:38;6.10;;;2.50;;
34471;SDS011;20710;49.976;19.836;2023-06-01T17:25:40;5.20;;;2.40;;
34471;SDS011;20710;49.976;19.836;2023-06-01T17:31:53;6.20;;;2.10;;
34471;SDS011;20710;49.976;19.836;2023-06-01T17:38:29;4.80;;;2.70;;
34471;SDS011;20710;49.976;19.836;2023-06-01T17:44:31;5.00;;;2.40;;
34471;SDS011;20710;49.976;19.836;2023-06-01T17:50:33;4.50;;;2.70;;
34471;SDS011;20710;49.976;19.836;2023-06-01T17:56:35;5.00;;;2.80;;
34471;SDS011;20710;49.976;19.836;2023-06-01T18:02:42;8.90;;;3.20;;
34471;SDS011;20710;49.976;19.836;2023-06-01T18:08:47;4.20;;;2.10;;
34471;SDS011;20710;49.976;19.836;2023-06-01T18:15:01;6.00;;;2.60;;
34471;SDS011;20710;49.976;19.836;2023-06-01T18:21:24;6.50;;;2.60;;
34471;SDS011;20710;49.976;19.836;2023-06-01T18:27:46;7.30;;;2.30;;
34471;SDS011;20710;49.976;19.836;2023-06-01T18:33:48;4.40;;;2.50;;
34471;SDS011;20710;49.976;19.836;2023-06-01T18:39:50;15.80;;;3.50;;
34471;SDS011;20710;49.976;19.836;2023-06-01T18:45:52;6.40;;;2.50;;
34471;SDS011;20710;49.976;19.836;2023-06-01T18:52:12;9.70;;;2.80;;
34471;SDS011;20710;49.976;19.836;2023-06-01T18:58:54;8.80;;;3.10;;
34471;SDS011;20710;49.976;19.836;2023-06-01T19:05:00;8.50;;;3.80;;
34471;SDS011;20710;49.976;19.836;2023-06-01T19:11:05;9.30;;;4.50;;
34471;SDS011;20710;49.976;19.836;2023-06-01T19:17:18;18.50;;;5.30;;
34471;SDS011;20710;49.976;19.836;2023-06-01T19:23:37;16.20;;;5.00;;
34471;SDS011;20710;49.976;19.836;2023-06-01T19:29:59;9.70;;;3.60;;
34471;SDS011;20710;49.976;19.836;2023-06-01T19:36:05;8.40;;;3.90;;
34471;SDS011;20710;49.976;19.836;2023-06-01T19:48:37;10.40;;;4.50;;
34471;SDS011;20710;49.976;19.836;2023-06-01T19:54:40;12.00;;;4.30;;
34471;SDS011;20710;49.976;19.836;2023-06-01T20:01:02;7.10;;;4.30;;
34471;SDS011;20710;49.976;19.836;2023-06-01T20:07:05;11.10;;;4.50;;
34471;SDS011;20710;49.976;19.836;2023-06-01T20:13:11;11.80;;;5.40;;
34471;SDS011;20710;49.976;19.836;2023-06-01T20:19:13;13.90;;;5.00;;
34471;SDS011;20710;49.976;19.836;2023-06-01T20:25:18;10.90;;;5.40;;
34471;SDS011;20710;49.976;19.836;2023-06-01T20:31:40;14.00;;;4.90;;
34471;SDS011;20710;49.976;19.836;2023-06-01T20:37:59;13.70;;;5.70;;
34471;SDS011;20710;49.976;19.836;2023-06-01T20:44:02;11.10;;;5.20;;
34471;SDS011;20710;49.976;19.836;2023-06-01T20:50:04;9.90;;;5.80;;
34471;SDS011;20710;49.976;19.836;2023-06-01T20:56:06;14.80;;;6.80;;
34471;SDS011;20710;49.976;19.836;2023-06-01T21:02:10;16.60;;;9.50;;
34471;SDS011;20710;49.976;19.836;2023-06-01T21:08:15;18.70;;;8.80;;
34471;SDS011;20710;49.976;19.836;2023-06-01T21:14:18;14.50;;;8.30;;
34471;SDS011;20710;49.976;19.836;2023-06-01T21:20:20;18.30;;;8.70;;
34471;SDS011;20710;49.976;19.836;2023-06-01T21:26:43;14.90;;;8.20;;
34471;SDS011;20710;49.976;19.836;2023-06-01T21:33:06;12.20;;;7.00;;
34471;SDS011;20710;49.976;19.836;2023-06-01T21:39:07;12.10;;;7.30;;
34471;SDS011;20710;49.976;19.836;2023-06-01T21:45:09;14.20;;;7.70;;
34471;SDS011;20710;49.976;19.836;2023-06-01T21:51:33;16.10;;;8.60;;
34471;SDS011;20710;49.976;19.836;2023-06-01T21:57:35;14.70;;;7.60;;
34471;SDS011;20710;49.976;19.836;2023-06-01T22:03:37;12.40;;;7.90;;
34471;SDS011;20710;49.976;19.836;2023-06-01T22:09:40;12.80;;;7.30;;
34471;SDS011;20710;49.976;19.836;2023-06-01T22:15:42;15.80;;;7.30;;
34471;SDS011;20710;49.976;19.836;2023-06-01T22:21:44;14.70;;;7.60;;
34471;SDS011;20710;49.976;19.836;2023-06-01T22:27:46;16.40;;;7.20;;
34471;SDS011;20710;49.976;19.836;2023-06-01T22:34:20;18.20;;;8.40;;
34471;SDS011;20710;49.976;19.836;2023-06-01T22:40:23;11.00;;;7.10;;
34471;SDS011;20710;49.976;19.836;2023-06-01T22:46:42;12.90;;;6.80;;
34471;SDS011;20710;49.976;19.836;2023-06-01T22:53:04;13.50;;;8.30;;
34471;SDS011;20710;49.976;19.836;2023-06-01T22:59:08;14.00;;;8.10;;
34471;SDS011;20710;49.976;19.836;2023-06-01T23:05:30;14.60;;;7.20;;
34471;SDS011;20710;49.976;19.836;2023-06-01T23:11:53;11.60;;;7.60;;
34471;SDS011;20710;49.976;19.836;2023-06-01T23:17:56;15.20;;;7.90;;
34471;SDS011;20710;49.976;19.836;2023-06-01T23:24:19;13.40;;;7.30;;
34471;SDS011;20710;49.976;19.836;2023-06-01T23:30:25;11.60;;;6.70;;
34471;SDS011;20710;49.976;19.836;2023-06-01T23:36:27;12.50;;;6.70;;
34471;SDS011;20710;49.976;19.836;2023-06-01T23:42:29;10.90;;;6.10;;
34471;SDS011;20710;49.976;19.836;2023-06-01T23:48:32;9.00;;;6.50;;
34471;SDS011;20710;49.976;19.836;2023-06-01T23:54:47;11.30;;;6.70;;
